createdAt,value
2024-04-22T00:01:01.083Z,1.80
2024-04-22T00:03:34.456Z,2.13
2024-04-22T00:06:01.891Z,1.53
2024-04-22T00:08:32.423Z,2.07
2024-04-22T00:11:07.166Z,1.87
2024-04-22T00:13:37.818Z,1.80
2024-04-22T00:16:08.327Z,1.57
2024-04-22T00:18:38.083Z,1.80
2024-04-22T00:21:05.739Z,2.10
2024-04-22T00:23:35.468Z,1.70
2024-04-22T00:26:02.732Z,2.13
2024-04-22T00:28:32.728Z,1.90
2024-04-22T00:31:00.675Z,1.97
2024-04-22T00:33:30.520Z,1.63
2024-04-22T00:36:04.211Z,1.80
2024-04-22T00:38:34.532Z,1.77
2024-04-22T00:41:01.988Z,2.10
2024-04-22T00:43:31.793Z,1.60
2024-04-22T00:46:01.870Z,1.90
2024-04-22T00:48:28.928Z,2.23
2024-04-22T00:51:02.889Z,2.30
2024-04-22T00:53:31.010Z,2.00
2024-04-22T00:56:01.106Z,1.60
2024-04-22T00:58:30.388Z,2.30
2024-04-22T01:01:01.573Z,1.63
2024-04-22T01:03:29.075Z,2.17
2024-04-22T01:05:59.553Z,1.87
2024-04-22T01:08:26.681Z,2.07
2024-04-22T01:10:57.913Z,1.60
2024-04-22T01:13:25.342Z,1.57
2024-04-22T01:15:57.951Z,1.93
2024-04-22T01:18:26.160Z,1.90
2024-04-22T01:20:56.286Z,2.47
2024-04-22T01:23:23.534Z,2.30
2024-04-22T01:25:58.601Z,2.60
2024-04-22T01:28:25.851Z,2.03
2024-04-22T01:30:55.878Z,2.00
2024-04-22T01:33:23.045Z,2.10
2024-04-22T01:35:52.866Z,2.13
2024-04-22T01:38:19.900Z,1.90
2024-04-22T01:40:49.755Z,2.00
2024-04-22T01:43:16.818Z,2.03
2024-04-22T01:45:46.521Z,1.70
2024-04-22T01:48:13.622Z,1.90
2024-04-22T01:50:43.388Z,2.53
2024-04-22T01:53:10.744Z,2.30
2024-04-22T01:55:41.846Z,2.00
2024-04-22T01:58:08.959Z,1.90
2024-04-22T02:00:38.885Z,2.47
2024-04-22T02:03:06.266Z,2.50
2024-04-22T02:05:36.070Z,2.33
2024-04-22T02:08:03.563Z,2.23
2024-04-22T02:10:33.599Z,2.30
2024-04-22T02:13:02.560Z,2.53
2024-04-22T02:15:36.099Z,2.10
2024-04-22T02:18:03.466Z,2.40
2024-04-22T02:20:33.891Z,2.63
2024-04-22T02:23:01.957Z,2.43
2024-04-22T02:25:31.955Z,2.43
2024-04-22T02:28:02.152Z,2.23
2024-04-22T02:30:32.170Z,1.73
2024-04-22T02:32:59.247Z,2.57
2024-04-22T02:35:28.948Z,2.50
2024-04-22T02:37:55.925Z,2.10
2024-04-22T02:40:25.749Z,2.70
2024-04-22T02:42:52.760Z,2.20
2024-04-22T02:45:24.377Z,2.30
2024-04-22T02:47:51.849Z,2.10
2024-04-22T02:50:21.543Z,2.00
2024-04-22T02:52:48.711Z,2.80
2024-04-22T02:55:18.832Z,2.00
2024-04-22T02:57:45.880Z,2.33
2024-04-22T03:00:15.801Z,2.17
2024-04-22T03:02:43.029Z,2.40
2024-04-22T03:05:12.863Z,2.40
2024-04-22T03:07:45.586Z,2.67
2024-04-22T03:10:15.593Z,2.07
2024-04-22T03:12:48.118Z,2.80
2024-04-22T03:15:19.143Z,2.30
2024-04-22T03:17:46.297Z,2.27
2024-04-22T03:20:16.196Z,2.20
2024-04-22T03:22:43.256Z,2.00
2024-04-22T03:25:12.963Z,2.43
2024-04-22T03:27:40.003Z,2.17
2024-04-22T03:30:14.834Z,2.30
2024-04-22T03:32:41.960Z,2.30
2024-04-22T03:35:14.722Z,2.13
2024-04-22T03:37:45.564Z,2.80
2024-04-22T03:40:15.346Z,2.20
2024-04-22T03:42:45.119Z,2.57
2024-04-22T03:45:12.185Z,2.37
2024-04-22T03:47:58.076Z,2.20
2024-04-22T03:50:33.182Z,2.33
2024-04-22T03:53:03.404Z,3.83
2024-04-22T03:55:33.291Z,2.30
2024-04-22T03:58:03.701Z,2.07
2024-04-22T04:00:33.835Z,2.50
2024-04-22T04:03:03.711Z,2.30
2024-04-22T04:05:35.878Z,2.37
2024-04-22T04:08:09.213Z,2.07
2024-04-22T04:10:38.715Z,2.27
2024-04-22T04:16:07.297Z,2.20
2024-04-22T04:18:37.510Z,2.50
2024-04-22T04:21:04.974Z,2.20
2024-04-22T04:23:36.182Z,1.37
2024-04-22T04:26:03.318Z,2.30
2024-04-22T04:28:33.270Z,2.50
2024-04-22T04:31:05.011Z,2.30
2024-04-22T04:33:34.936Z,2.53
2024-04-22T04:36:02.413Z,2.63
2024-04-22T04:38:32.585Z,2.57
2024-04-22T04:41:02.540Z,2.63
2024-04-22T04:43:33.772Z,2.43
2024-04-22T04:46:01.349Z,2.00
2024-04-22T04:48:31.231Z,2.17
2024-04-22T04:51:01.328Z,2.67
2024-04-22T04:53:32.460Z,2.10
2024-04-22T04:55:59.610Z,2.70
2024-04-22T04:58:32.088Z,2.50
2024-04-22T05:00:59.528Z,2.53
2024-04-22T05:03:29.707Z,2.20
2024-04-22T05:06:01.415Z,2.47
2024-04-22T05:08:31.535Z,2.57
2024-04-22T05:11:04.233Z,2.23
2024-04-22T05:13:34.058Z,2.20
2024-04-22T05:16:01.184Z,2.27
2024-04-22T05:18:31.378Z,2.27
2024-04-22T05:20:58.774Z,3.13
2024-04-22T05:23:28.788Z,2.30
2024-04-22T05:25:56.208Z,2.30
2024-04-22T05:28:28.796Z,3.23
2024-04-22T05:30:58.905Z,2.50
2024-04-22T05:33:54.605Z,2.33
2024-04-22T05:36:27.574Z,2.80
2024-04-22T05:39:00.595Z,2.50
2024-04-22T05:41:30.603Z,2.20
2024-04-22T05:44:03.084Z,2.40
2024-04-22T05:46:32.973Z,2.50
2024-04-22T05:49:05.778Z,2.83
2024-04-22T05:51:35.986Z,2.50
2024-04-22T05:54:08.123Z,2.00
2024-04-22T05:56:37.992Z,2.30
2024-04-22T05:59:09.690Z,2.67
2024-04-22T06:01:40.470Z,2.77
2024-04-22T06:04:10.516Z,2.30
2024-04-22T06:06:41.097Z,2.57
2024-04-22T06:09:11.060Z,2.60
2024-04-22T06:11:48.623Z,2.37
2024-04-22T06:14:48.557Z,2.77
2024-04-22T06:17:32.727Z,3.00
2024-04-22T06:20:02.319Z,2.40
2024-04-22T06:22:34.047Z,2.87
2024-04-22T06:25:01.293Z,3.17
2024-04-22T06:27:31.420Z,2.93
2024-04-22T06:29:58.698Z,2.40
2024-04-22T06:32:28.988Z,2.97
2024-04-22T06:34:59.053Z,2.60
2024-04-22T06:37:26.208Z,2.40
2024-04-22T06:39:55.967Z,2.60
2024-04-22T06:42:23.188Z,2.80
2024-04-22T06:44:53.284Z,2.80
2024-04-22T06:47:20.737Z,2.30
2024-04-22T06:49:50.674Z,1.90
2024-04-22T06:52:18.272Z,2.47
2024-04-22T06:54:48.403Z,2.30
2024-04-22T06:57:19.739Z,2.87
2024-04-22T06:59:49.971Z,2.47
2024-04-22T07:02:20.364Z,2.60
2024-04-22T07:04:52.754Z,2.43
2024-04-22T07:07:22.871Z,2.97
2024-04-22T07:09:52.872Z,2.30
2024-04-22T07:12:19.945Z,2.43
2024-04-22T07:14:49.738Z,2.60
2024-04-22T07:17:18.402Z,2.67
2024-04-22T07:19:49.983Z,2.60
2024-04-22T07:22:20.224Z,2.50
2024-04-22T07:24:57.724Z,1.97
2024-04-22T07:27:35.717Z,2.47
2024-04-22T07:30:07.071Z,2.53
2024-04-22T07:32:34.684Z,2.53
2024-04-22T07:35:04.732Z,2.87
2024-04-22T07:37:52.519Z,3.13
2024-04-22T07:40:23.808Z,2.20
2024-04-22T07:42:51.397Z,2.13
2024-04-22T07:45:24.216Z,2.60
2024-04-22T07:47:54.126Z,2.97
2024-04-22T07:50:24.333Z,2.67
2024-04-22T07:52:52.661Z,2.70
2024-04-22T07:55:22.943Z,2.40
2024-04-22T07:57:52.369Z,2.43
2024-04-22T08:00:22.786Z,2.30
2024-04-22T08:02:50.316Z,3.03
2024-04-22T08:05:21.153Z,2.33
2024-04-22T08:07:57.964Z,2.00
2024-04-22T08:10:27.956Z,2.20
2024-04-22T08:12:55.226Z,2.50
2024-04-22T08:15:29.810Z,2.70
2024-04-22T08:17:56.872Z,2.10
2024-04-22T08:20:27.790Z,2.03
2024-04-22T08:22:54.964Z,2.50
2024-04-22T08:25:28.243Z,2.10
2024-04-22T08:27:55.588Z,2.10
2024-04-22T08:30:25.270Z,2.30
2024-04-22T08:32:52.490Z,1.70
2024-04-22T08:35:23.769Z,2.43
2024-04-22T08:37:53.336Z,1.80
2024-04-22T08:40:26.714Z,2.23
2024-04-22T08:42:54.782Z,1.90
2024-04-22T08:45:28.736Z,1.90
2024-04-22T08:48:00.274Z,2.03
2024-04-22T08:50:33.249Z,2.70
2024-04-22T08:53:04.201Z,2.63
2024-04-22T08:55:34.036Z,2.50
2024-04-22T08:58:01.137Z,2.43
2024-04-22T09:00:30.934Z,2.73
2024-04-22T09:02:58.041Z,2.23
2024-04-22T09:05:29.816Z,2.33
2024-04-22T09:07:59.922Z,2.10
2024-04-22T09:11:05.437Z,2.10
2024-04-22T09:13:21.920Z,2.43
2024-04-22T09:15:57.768Z,2.60
2024-04-22T09:18:30.721Z,2.27
2024-04-22T09:21:11.562Z,1.70
2024-04-22T09:23:39.345Z,2.33
2024-04-22T09:26:09.989Z,2.73
2024-04-22T09:28:40.969Z,2.07
2024-04-22T09:31:12.977Z,1.70
2024-04-22T09:33:44.519Z,2.13
2024-04-22T09:36:15.989Z,1.83
2024-04-22T09:38:51.975Z,2.20
2024-04-22T09:41:24.234Z,2.53
2024-04-22T09:43:57.830Z,2.00
2024-04-22T09:46:31.491Z,1.90
2024-04-22T09:49:00.935Z,1.97
2024-04-22T09:51:32.926Z,1.90
2024-04-22T09:54:00.141Z,2.40
2024-04-22T09:56:34.810Z,2.20
2024-04-22T09:59:04.689Z,2.10
2024-04-22T10:01:35.063Z,2.40
2024-04-22T10:04:02.792Z,2.10
2024-04-22T10:06:33.944Z,1.80
2024-04-22T10:09:01.448Z,2.20
2024-04-22T10:11:38.543Z,2.40
2024-04-22T10:14:18.295Z,2.00
2024-04-22T10:17:01.805Z,1.80
2024-04-22T10:19:30.691Z,2.17
2024-04-22T10:22:09.123Z,1.90
2024-04-22T10:24:41.127Z,1.90
2024-04-22T10:27:16.990Z,2.10
2024-04-22T10:29:44.250Z,2.27
2024-04-22T10:32:14.013Z,2.03
2024-04-22T10:34:45.748Z,1.83
2024-04-22T10:37:16.542Z,2.27
2024-04-22T10:39:50.064Z,2.20
2024-04-22T10:42:20.928Z,1.40
2024-04-22T10:44:48.301Z,2.13
2024-04-22T10:47:18.300Z,2.10
2024-04-22T10:49:52.642Z,2.00
2024-04-22T10:52:22.670Z,2.43
2024-04-22T10:54:53.528Z,1.83
2024-04-22T10:57:20.993Z,2.90
2024-04-22T10:59:58.295Z,1.80
2024-04-22T11:02:25.506Z,2.00
2024-04-22T11:04:56.047Z,2.10
2024-04-22T11:07:25.157Z,2.00
2024-04-22T11:09:55.162Z,2.57
2024-04-22T11:12:26.451Z,2.30
2024-04-22T11:15:00.718Z,1.90
2024-04-22T11:17:27.897Z,2.00
2024-04-22T11:19:57.889Z,2.27
2024-04-22T11:22:25.006Z,1.90
2024-04-22T11:24:57.670Z,2.00
2024-04-22T11:27:24.795Z,2.00
2024-04-22T11:29:56.955Z,1.87
2024-04-22T11:32:26.117Z,2.10
2024-04-22T11:34:55.997Z,2.00
2024-04-22T11:37:23.511Z,2.20
2024-04-22T11:39:54.065Z,2.00
2024-04-22T11:42:21.445Z,1.97
2024-04-22T11:44:54.122Z,2.20
2024-04-22T11:47:21.366Z,2.27
2024-04-22T11:49:51.775Z,2.13
2024-04-22T11:52:18.995Z,1.90
2024-04-22T11:54:51.388Z,2.10
2024-04-22T11:57:18.417Z,2.10
2024-04-22T11:59:48.105Z,1.80
2024-04-22T12:02:18.477Z,2.40
2024-04-22T12:04:48.822Z,2.77
2024-04-22T12:07:16.652Z,2.03
2024-04-22T12:09:46.323Z,1.70
2024-04-22T12:12:13.430Z,2.70
2024-04-22T12:14:43.042Z,2.40
2024-04-22T12:17:11.541Z,2.07
2024-04-22T12:19:41.325Z,2.33
2024-04-22T12:22:08.363Z,2.13
2024-04-22T12:24:40.903Z,2.27
2024-04-22T12:27:09.782Z,2.10
2024-04-22T12:29:40.919Z,2.10
2024-04-22T12:32:08.116Z,2.20
2024-04-22T12:34:37.908Z,2.30
2024-04-22T12:37:04.992Z,2.30
2024-04-22T12:39:39.966Z,1.77
2024-04-22T12:42:07.269Z,2.00
2024-04-22T12:44:39.254Z,2.00
2024-04-22T12:47:21.062Z,2.00
2024-04-22T12:50:06.780Z,2.10
2024-04-22T12:52:36.672Z,2.07
2024-04-22T12:55:09.240Z,1.83
2024-04-22T12:57:39.366Z,2.17
2024-04-22T13:00:14.283Z,1.83
2024-04-22T13:02:49.223Z,2.47
2024-04-22T13:05:19.306Z,2.10
2024-04-22T13:07:52.600Z,2.23
2024-04-22T13:10:22.501Z,2.30
2024-04-22T13:12:52.550Z,1.90
2024-04-22T13:15:19.775Z,2.10
2024-04-22T13:17:49.601Z,2.67
2024-04-22T13:20:19.554Z,2.10
2024-04-22T13:22:46.708Z,2.30
2024-04-22T13:25:16.464Z,2.10
2024-04-22T13:27:43.504Z,2.30
2024-04-22T13:30:15.263Z,2.07
2024-04-22T13:32:47.302Z,2.70
2024-04-22T13:35:14.762Z,2.30
2024-04-22T13:37:44.821Z,2.20
2024-04-22T13:40:11.955Z,2.23
2024-04-22T13:42:46.391Z,2.13
2024-04-22T13:45:16.074Z,2.53
2024-04-22T13:47:48.188Z,2.03
2024-04-22T13:50:15.308Z,1.83
2024-04-22T13:52:50.582Z,2.20
2024-04-22T13:55:17.743Z,1.97
2024-04-22T13:57:48.723Z,2.40
2024-04-22T14:00:16.050Z,2.43
2024-04-22T14:02:46.390Z,2.00
2024-04-22T14:05:14.878Z,2.20
2024-04-22T14:07:46.453Z,2.30
2024-04-22T14:12:43.802Z,2.63
2024-04-22T14:15:11.296Z,1.93
2024-04-22T14:17:44.449Z,2.00
2024-04-22T14:20:12.723Z,1.80
2024-04-22T14:22:42.397Z,1.97
2024-04-22T14:25:09.547Z,2.63
2024-04-22T14:27:39.241Z,1.97
2024-04-22T14:30:07.070Z,2.50
2024-04-22T14:32:37.252Z,1.80
2024-04-22T14:35:04.875Z,1.80
2024-04-22T14:37:35.976Z,2.17
2024-04-22T14:40:03.104Z,1.90
2024-04-22T14:42:34.579Z,2.13
2024-04-22T14:45:01.701Z,1.93
2024-04-22T14:47:31.886Z,2.10
2024-04-22T14:49:58.986Z,2.20
2024-04-22T14:52:28.693Z,2.10
2024-04-22T14:54:55.640Z,2.07
2024-04-22T14:57:25.396Z,1.70
2024-04-22T14:59:52.496Z,2.10
2024-04-22T15:02:29.797Z,1.87
2024-04-22T15:04:56.913Z,2.03
2024-04-22T15:07:30.258Z,2.20
2024-04-22T15:09:57.383Z,2.13
2024-04-22T15:12:29.212Z,1.97
2024-04-22T15:14:56.230Z,1.97
2024-04-22T15:17:26.166Z,2.20
2024-04-22T15:19:53.388Z,1.93
2024-04-22T15:22:23.154Z,2.40
2024-04-22T15:24:50.178Z,2.33
2024-04-22T15:27:24.809Z,2.07
2024-04-22T15:29:54.655Z,2.13
2024-04-22T15:32:24.615Z,2.00
2024-04-22T15:34:51.849Z,1.77
2024-04-22T15:37:21.691Z,1.87
2024-04-22T15:39:48.854Z,2.00
2024-04-22T15:42:18.554Z,2.40
2024-04-22T15:44:47.569Z,1.80
2024-04-22T15:47:21.144Z,1.70
2024-04-22T15:49:50.098Z,1.90
2024-04-22T15:52:19.992Z,1.77
2024-04-22T15:54:47.082Z,1.50
2024-04-22T15:57:19.857Z,1.80
2024-04-22T15:59:55.452Z,2.20
2024-04-22T16:02:32.435Z,1.80
2024-04-22T16:04:59.791Z,2.00
2024-04-22T16:07:35.889Z,2.20
2024-04-22T16:10:03.025Z,1.63
2024-04-22T16:12:33.132Z,2.07
2024-04-22T16:15:00.794Z,1.90
2024-04-22T16:17:32.050Z,2.10
2024-04-22T16:19:59.092Z,1.87
2024-04-22T16:22:28.843Z,1.90
2024-04-22T16:24:55.926Z,1.87
2024-04-22T16:27:25.685Z,2.13
2024-04-22T16:29:53.087Z,1.43
2024-04-22T16:32:22.839Z,2.00
2024-04-22T16:34:50.040Z,2.03
2024-04-22T16:37:20.011Z,1.93
2024-04-22T16:39:47.029Z,1.70
2024-04-22T16:42:17.291Z,1.70
2024-04-22T16:44:44.464Z,1.60
2024-04-22T16:47:14.367Z,2.33
2024-04-22T16:49:41.494Z,2.10
2024-04-22T16:52:13.537Z,1.70
2024-04-22T16:54:40.600Z,1.50
2024-04-22T16:57:11.942Z,1.37
2024-04-22T16:59:41.584Z,1.60
2024-04-22T17:02:13.003Z,1.77
2024-04-22T17:04:41.156Z,1.60
2024-04-22T17:07:11.118Z,1.37
2024-04-22T17:09:38.099Z,1.67
2024-04-22T17:12:08.156Z,1.60
2024-04-22T17:14:35.556Z,1.60
2024-04-22T17:17:07.845Z,1.83
2024-04-22T17:19:35.490Z,1.47
2024-04-22T17:22:05.378Z,1.97
2024-04-22T17:24:32.413Z,1.77
2024-04-22T17:27:03.016Z,1.43
2024-04-22T17:29:30.096Z,1.63
2024-04-22T17:31:59.801Z,2.13
2024-04-22T17:34:27.482Z,2.00
2024-04-22T17:37:02.743Z,1.70
2024-04-22T17:39:29.735Z,2.10
2024-04-22T17:42:08.742Z,1.93
2024-04-22T17:44:37.747Z,1.90
2024-04-22T17:47:10.185Z,1.67
2024-04-22T17:49:41.296Z,2.10
2024-04-22T17:52:11.115Z,1.87
2024-04-22T17:54:47.076Z,1.67
2024-04-22T17:57:18.400Z,1.90
2024-04-22T17:59:49.696Z,1.70
2024-04-22T18:02:22.312Z,1.80
2024-04-22T18:04:49.965Z,2.20
2024-04-22T18:07:19.800Z,2.00
2024-04-22T18:09:46.837Z,1.70
2024-04-22T18:12:16.847Z,1.80
2024-04-22T18:14:46.946Z,1.83
2024-04-22T18:17:17.986Z,1.80
2024-04-22T18:19:45.138Z,1.87
2024-04-22T18:22:17.848Z,1.93
2024-04-22T18:24:48.803Z,1.80
2024-04-22T18:27:18.515Z,1.80
2024-04-22T18:29:48.590Z,2.00
2024-04-22T18:32:18.275Z,1.70
2024-04-22T18:34:45.361Z,1.80
2024-04-22T18:37:15.068Z,1.90
2024-04-22T18:39:42.051Z,2.07
2024-04-22T18:42:17.718Z,1.83
2024-04-22T18:44:44.970Z,2.00
2024-04-22T18:47:14.922Z,2.00
2024-04-22T18:49:42.286Z,2.00
2024-04-22T18:52:12.069Z,2.40
2024-04-22T18:54:39.101Z,2.00
2024-04-22T18:57:09.502Z,2.17
2024-04-22T18:59:37.570Z,1.97
2024-04-22T19:02:07.717Z,1.57
2024-04-22T19:04:35.084Z,2.00
2024-04-22T19:07:05.540Z,1.93
2024-04-22T19:09:33.090Z,2.10
2024-04-22T19:12:03.125Z,2.10
2024-04-22T19:14:30.430Z,1.80
2024-04-22T19:17:03.248Z,2.43
2024-04-22T19:19:30.768Z,1.80
2024-04-22T19:22:00.566Z,2.00
2024-04-22T19:24:27.824Z,2.00
2024-04-22T19:26:57.666Z,2.57
2024-04-22T19:29:24.706Z,2.00
2024-04-22T19:31:55.012Z,1.93
2024-04-22T19:34:22.575Z,2.13
2024-04-22T19:37:01.874Z,2.33
2024-04-22T19:39:29.412Z,1.70
2024-04-22T19:41:59.878Z,2.17
2024-04-22T19:44:29.945Z,1.93
2024-04-22T19:46:59.732Z,2.23
2024-04-22T19:49:26.790Z,2.20
2024-04-22T19:51:56.485Z,2.13
2024-04-22T19:54:23.473Z,2.10
2024-04-22T19:56:53.292Z,2.77
2024-04-22T19:59:20.328Z,2.00
2024-04-22T20:01:50.409Z,2.40
2024-04-22T20:04:20.498Z,2.20
2024-04-22T20:06:53.191Z,1.90
2024-04-22T20:09:20.647Z,2.13
2024-04-22T20:11:50.718Z,2.40
2024-04-22T20:14:17.757Z,2.40
2024-04-22T20:17:11.219Z,2.70
2024-04-22T20:19:40.941Z,2.33
2024-04-22T20:22:10.990Z,2.70
2024-04-22T20:24:38.149Z,3.10
2024-04-22T20:27:11.382Z,2.63
2024-04-22T20:29:42.684Z,2.97
2024-04-22T20:32:18.064Z,2.90
2024-04-22T20:34:49.287Z,2.87
2024-04-22T20:37:19.108Z,3.10
2024-04-22T20:39:46.110Z,3.10
2024-04-22T20:42:18.719Z,3.07
2024-04-22T20:44:48.930Z,3.13
2024-04-22T20:47:20.234Z,3.33
2024-04-22T20:49:51.554Z,3.27
2024-04-22T20:52:21.590Z,2.73
2024-04-22T20:54:48.820Z,3.33
2024-04-22T20:57:18.789Z,3.37
2024-04-22T20:59:45.839Z,3.13
2024-04-22T21:02:15.496Z,3.03
2024-04-22T21:04:42.955Z,2.67
2024-04-22T21:07:18.819Z,3.73
2024-04-22T21:09:46.062Z,2.60
2024-04-22T21:12:17.851Z,3.13
2024-04-22T21:14:44.850Z,3.33
2024-04-22T21:17:14.744Z,3.03
2024-04-22T21:19:41.866Z,3.10
2024-04-22T21:22:11.757Z,3.13
2024-04-22T21:24:39.033Z,2.97
2024-04-22T21:27:09.101Z,2.70
2024-04-22T21:29:36.334Z,2.87
2024-04-22T21:32:06.048Z,3.00
2024-04-22T21:34:33.284Z,3.07
2024-04-22T21:37:03.000Z,3.10
2024-04-22T21:39:30.021Z,2.67
2024-04-22T21:41:59.701Z,3.20
2024-04-22T21:44:27.242Z,2.93
2024-04-22T21:46:58.580Z,2.70
2024-04-22T21:49:27.943Z,3.30
2024-04-22T21:51:57.680Z,3.20
2024-04-22T21:54:24.709Z,3.23
2024-04-22T21:56:54.237Z,3.07
2024-04-22T21:59:58.552Z,2.93
2024-04-22T22:03:05.678Z,3.33
2024-04-22T22:06:10.545Z,3.17
2024-04-22T22:08:40.799Z,3.27
2024-04-22T22:11:07.973Z,3.30
2024-04-22T22:13:37.958Z,2.93
2024-04-22T22:16:05.375Z,2.97
2024-04-22T22:18:35.408Z,3.20
2024-04-22T22:21:02.657Z,2.50
2024-04-22T22:23:32.427Z,3.20
2024-04-22T22:26:02.496Z,3.27
2024-04-22T22:28:33.994Z,3.27
2024-04-22T22:31:00.967Z,3.50
2024-04-22T22:33:30.631Z,3.40
2024-04-22T22:35:57.578Z,3.17
2024-04-22T22:38:27.332Z,3.60
2024-04-22T22:40:56.900Z,3.27
2024-04-22T22:43:26.695Z,2.83
2024-04-22T22:45:53.741Z,3.10
2024-04-22T22:48:23.617Z,2.70
2024-04-22T22:50:50.616Z,3.33
2024-04-22T22:53:20.339Z,3.50
2024-04-22T22:55:47.547Z,3.43
2024-04-22T22:58:17.693Z,3.17
2024-04-22T23:00:44.708Z,3.10
2024-04-22T23:03:17.043Z,3.47
2024-04-22T23:05:44.082Z,3.20
2024-04-22T23:08:13.897Z,3.20
2024-04-22T23:10:41.222Z,3.60
2024-04-22T23:13:11.045Z,3.47
2024-04-22T23:15:38.305Z,3.47
2024-04-22T23:18:08.588Z,3.10
2024-04-22T23:20:35.727Z,2.73
2024-04-22T23:23:05.649Z,3.37
2024-04-22T23:25:32.694Z,2.83
2024-04-22T23:28:02.998Z,3.40
2024-04-22T23:30:30.071Z,3.10
2024-04-22T23:32:59.903Z,3.47
2024-04-22T23:35:27.246Z,3.10
2024-04-22T23:37:56.953Z,3.27
2024-04-22T23:40:24.068Z,3.10
2024-04-22T23:42:54.655Z,2.90
2024-04-22T23:45:21.653Z,3.50
2024-04-22T23:47:53.855Z,3.33
2024-04-22T23:50:20.900Z,3.00
2024-04-22T23:52:50.591Z,3.13
2024-04-22T23:55:17.673Z,2.70
2024-04-22T23:57:47.524Z,3.30
